createdAt,value
2022-08-09T00:07:00.578Z,101447.66
2022-08-09T00:18:06.044Z,101443.25
2022-08-09T00:20:09.190Z,101441.78
2022-08-09T00:23:08.396Z,101446.19
2022-08-09T00:26:11.194Z,101443.81
2022-08-09T00:28:52.436Z,101446.72
2022-08-09T00:31:58.704Z,101446.19
2022-08-09T00:34:28.742Z,101443.81
2022-08-09T00:37:01.808Z,101449.91
2022-08-09T00:40:13.568Z,101446.84
2022-08-09T00:44:14.339Z,101446.00
2022-08-09T00:45:29.725Z,101449.25
2022-08-09T00:47:58.099Z,101443.28
2022-08-09T00:50:27.747Z,101444.50
2022-08-09T00:52:59.554Z,101441.09
2022-08-09T00:55:32.892Z,101439.75
2022-08-09T01:01:44.783Z,101444.81
2022-08-09T01:04:58.557Z,101442.28
2022-08-09T01:08:01.516Z,101436.03
2022-08-09T01:11:08.546Z,101436.53
2022-08-09T01:14:01.636Z,101434.50
2022-08-09T01:16:59.962Z,101428.91
2022-08-09T01:20:03.093Z,101428.56
2022-08-09T01:24:01.868Z,101426.84
2022-08-09T01:26:57.722Z,101432.28
2022-08-09T01:30:06.270Z,101423.47
2022-08-09T01:33:00.247Z,101422.63
2022-08-09T01:36:00.899Z,101422.63
2022-08-09T01:38:31.929Z,101422.28
2022-08-09T01:41:10.651Z,101424.31
2022-08-09T01:44:11.790Z,101424.47
2022-08-09T01:47:02.215Z,101416.50
2022-08-09T01:49:39.213Z,101411.41
2022-08-09T01:52:14.855Z,101408.88
2022-08-09T01:55:03.975Z,101399.06
2022-08-09T01:58:02.986Z,101400.06
2022-08-09T02:00:36.056Z,101410.38
2022-08-09T02:03:07.473Z,101411.22
2022-08-09T02:06:06.593Z,101406.16
2022-08-09T02:09:00.487Z,101410.69
2022-08-09T02:11:40.282Z,101424.41
2022-08-09T02:17:29.425Z,101425.59
2022-08-09T02:20:03.176Z,101428.47
2022-08-09T02:22:59.682Z,101440.50
2022-08-09T02:25:42.578Z,101437.97
2022-08-09T02:29:12.195Z,101437.44
2022-08-09T02:32:05.749Z,101443.84
2022-08-09T02:37:33.006Z,101453.47
2022-08-09T02:40:10.662Z,101451.09
2022-08-09T02:43:02.662Z,101455.69
2022-08-09T02:46:00.901Z,101461.25
2022-08-09T02:49:13.989Z,101466.84
2022-08-09T02:51:40.378Z,101473.44
2022-08-09T02:54:14.131Z,101475.47
2022-08-09T02:57:13.987Z,101482.56
2022-08-09T03:00:21.321Z,101489.16
2022-08-09T03:03:00.113Z,101487.63
2022-08-09T03:05:35.588Z,101481.66
2022-08-09T03:08:06.316Z,101491.00
2022-08-09T03:10:51.481Z,101491.16
2022-08-09T03:13:44.024Z,101501.13
2022-08-09T03:16:35.809Z,101506.03
2022-08-09T03:19:14.422Z,101508.19
2022-08-09T03:22:05.312Z,101500.06
2022-08-09T03:24:42.717Z,101503.94
2022-08-09T03:27:44.551Z,101502.41
2022-08-09T03:30:30.184Z,101501.03
2022-08-09T03:33:17.992Z,101504.19
2022-08-09T03:36:15.744Z,101501.97
2022-08-09T03:39:02.491Z,101503.97
2022-08-09T03:41:48.375Z,101510.03
2022-08-09T03:44:17.023Z,101503.22
2022-08-09T03:46:47.663Z,101500.69
2022-08-09T03:49:19.138Z,101500.00
2022-08-09T03:52:06.920Z,101491.03
2022-08-09T03:57:34.665Z,101497.06
2022-08-09T04:01:08.420Z,101493.97
2022-08-09T04:04:00.490Z,101498.31
2022-08-09T04:06:37.431Z,101498.66
2022-08-09T04:09:15.804Z,101498.97
2022-08-09T04:12:11.854Z,101514.50
2022-08-09T04:17:34.482Z,101511.41
2022-08-09T04:20:07.137Z,101516.13
2022-08-09T04:22:35.818Z,101511.38
2022-08-09T04:25:10.113Z,101520.63
2022-08-09T04:28:03.812Z,101513.34
2022-08-09T04:30:36.765Z,101518.25
2022-08-09T04:33:11.085Z,101523.09
2022-08-09T04:39:04.011Z,101531.50
2022-08-09T04:41:43.861Z,101528.69
2022-08-09T04:44:14.508Z,101531.84
2022-08-09T04:47:12.428Z,101537.72
2022-08-09T04:52:44.573Z,101546.59
2022-08-09T04:55:14.748Z,101557.13
2022-08-09T04:58:09.281Z,101551.56
2022-08-09T05:00:38.341Z,101555.25
2022-08-09T05:03:13.422Z,101549.78
2022-08-09T05:06:35.683Z,101562.88
2022-08-09T05:09:04.376Z,101560.06
2022-08-09T05:11:36.099Z,101560.06
2022-08-09T05:14:05.808Z,101570.59
2022-08-09T05:16:58.603Z,101563.19
2022-08-09T05:19:45.958Z,101557.47
2022-08-09T05:22:36.100Z,101563.03
2022-08-09T05:25:06.806Z,101564.47
2022-08-09T05:27:39.010Z,101575.44
2022-08-09T05:30:17.708Z,101576.72
2022-08-09T05:33:10.884Z,101566.41
2022-08-09T05:35:45.899Z,101562.75
2022-08-09T05:38:22.089Z,101561.66
2022-08-09T05:41:36.219Z,101560.66
2022-08-09T05:44:05.421Z,101554.81
2022-08-09T05:46:36.462Z,101557.06
2022-08-09T05:49:07.509Z,101559.63
2022-08-09T05:52:05.083Z,101547.59
2022-08-09T05:54:36.429Z,101552.13
2022-08-09T05:57:07.962Z,101539.78
2022-08-09T05:59:41.836Z,101546.47
2022-08-09T06:02:10.496Z,101544.72
2022-08-09T06:04:44.535Z,101543.16
2022-08-09T06:07:40.424Z,101543.78
2022-08-09T06:10:40.834Z,101538.97
2022-08-09T06:13:38.692Z,101537.00
2022-08-09T06:16:27.125Z,101538.56
2022-08-09T06:19:33.419Z,101537.19
2022-08-09T06:22:05.411Z,101543.88
2022-08-09T06:24:35.746Z,101545.69
2022-08-09T06:27:07.030Z,101541.16
2022-08-09T06:29:47.946Z,101551.66
2022-08-09T06:32:59.557Z,101546.28
2022-08-09T06:36:13.634Z,101555.84
2022-08-09T06:38:47.906Z,101562.22
2022-08-09T06:41:20.456Z,101557.97
2022-08-09T06:44:35.328Z,101556.06
2022-08-09T06:49:00.957Z,101558.91
2022-08-09T06:50:36.999Z,101565.41
2022-08-09T06:53:39.729Z,101560.00
2022-08-09T06:56:41.173Z,101558.50
2022-08-09T07:00:52.252Z,101560.59
2022-08-09T07:02:35.493Z,101562.84
2022-08-09T07:06:02.399Z,101564.09
2022-08-09T07:08:33.742Z,101559.00
2022-08-09T07:11:52.235Z,101560.13
2022-08-09T07:16:36.354Z,101557.69
2022-08-09T07:18:41.268Z,101559.69
2022-08-09T07:21:35.305Z,101565.31
2022-08-09T07:24:40.766Z,101561.72
2022-08-09T07:27:42.891Z,101571.97
2022-08-09T07:30:35.630Z,101574.91
2022-08-09T07:39:19.962Z,101573.00
2022-08-09T07:42:06.377Z,101585.97
2022-08-09T07:44:51.779Z,101583.63
2022-08-09T07:47:49.564Z,101574.88
2022-08-09T07:50:41.398Z,101568.44
2022-08-09T07:53:36.511Z,101567.00
2022-08-09T07:56:27.143Z,101566.25
2022-08-09T07:59:22.635Z,101561.47
2022-08-09T08:02:42.252Z,101563.69
2022-08-09T08:05:39.297Z,101575.25
2022-08-09T08:09:03.099Z,101574.50
2022-08-09T08:12:24.898Z,101575.94
2022-08-09T08:14:45.271Z,101570.81
2022-08-09T08:17:54.499Z,101569.97
2022-08-09T08:20:37.417Z,101570.69
2022-08-09T08:23:16.868Z,101577.03
2022-08-09T08:26:06.284Z,101569.38
2022-08-09T08:28:38.318Z,101568.88
2022-08-09T08:32:03.720Z,101566.59
2022-08-09T08:34:05.450Z,101570.06
2022-08-09T08:36:37.585Z,101560.91
2022-08-09T08:39:19.211Z,101556.53
2022-08-09T08:42:33.291Z,101555.53
2022-08-09T08:45:37.169Z,101550.03
2022-08-09T08:48:07.074Z,101547.09
2022-08-09T08:50:39.117Z,101550.03
2022-08-09T08:53:24.729Z,101553.00
2022-08-09T08:56:25.030Z,101554.22
2022-08-09T08:59:20.330Z,101555.19
2022-08-09T09:02:02.837Z,101551.28
2022-08-09T09:04:47.304Z,101547.94
2022-08-09T09:07:36.860Z,101554.91
2022-08-09T09:10:12.273Z,101546.31
2022-08-09T09:12:44.549Z,101549.00
2022-08-09T09:15:34.471Z,101553.16
2022-08-09T09:18:05.588Z,101552.91
2022-08-09T09:20:39.218Z,101553.53
2022-08-09T09:23:38.939Z,101552.72
2022-08-09T09:26:12.398Z,101554.09
2022-08-09T09:29:04.128Z,101545.28
2022-08-09T09:32:03.726Z,101553.13
2022-08-09T09:34:36.803Z,101558.63
2022-08-09T09:37:06.433Z,101551.28
2022-08-09T09:40:20.887Z,101550.44
2022-08-09T09:43:07.142Z,101549.09
2022-08-09T09:49:08.213Z,101553.38
2022-08-09T09:51:40.414Z,101544.75
2022-08-09T09:54:19.210Z,101551.69
2022-08-09T09:58:01.028Z,101549.38
2022-08-09T09:59:41.835Z,101551.72
2022-08-09T10:02:23.361Z,101542.53
2022-08-09T10:05:09.850Z,101544.75
2022-08-09T10:07:38.462Z,101541.06
2022-08-09T10:10:34.904Z,101535.56
2022-08-09T10:13:06.340Z,101539.56
2022-08-09T10:16:09.261Z,101534.19
2022-08-09T10:18:37.612Z,101530.31
2022-08-09T10:21:10.353Z,101521.78
2022-08-09T10:23:39.741Z,101523.72
2022-08-09T10:26:10.984Z,101519.16
2022-08-09T10:28:41.465Z,101518.88
2022-08-09T10:34:33.452Z,101522.59
2022-08-09T10:37:04.059Z,101522.38
2022-08-09T10:39:40.995Z,101528.00
2022-08-09T10:42:34.855Z,101516.31
2022-08-09T10:45:10.699Z,101518.63
2022-08-09T10:48:16.782Z,101509.97
2022-08-09T10:51:29.754Z,101510.69
2022-08-09T10:54:12.349Z,101516.31
2022-08-09T10:56:43.308Z,101517.41
2022-08-09T10:59:31.248Z,101519.63
2022-08-09T11:03:13.709Z,101517.53
2022-08-09T11:05:25.359Z,101518.66
2022-08-09T11:08:18.819Z,101524.75
2022-08-09T11:11:00.893Z,101523.53
2022-08-09T11:13:53.798Z,101523.78
2022-08-09T11:16:52.121Z,101528.28
2022-08-09T11:20:11.183Z,101525.34
2022-08-09T11:22:56.700Z,101526.09
2022-08-09T11:25:45.137Z,101516.22
2022-08-09T11:28:38.566Z,101520.00
2022-08-09T11:31:52.503Z,101515.34
2022-08-09T11:34:26.729Z,101520.84
2022-08-09T11:37:07.601Z,101525.34
2022-08-09T11:40:05.964Z,101521.34
2022-08-09T11:42:53.618Z,101510.31
2022-08-09T11:45:42.513Z,101512.13
2022-08-09T11:48:27.304Z,101513.31
2022-08-09T11:52:49.584Z,101523.09
2022-08-09T11:54:27.863Z,101529.78
2022-08-09T11:58:00.081Z,101532.91
2022-08-09T12:00:39.273Z,101537.31
2022-08-09T12:10:39.794Z,101540.25
2022-08-09T12:14:08.218Z,101534.00
2022-08-09T12:19:06.567Z,101535.88
2022-08-09T12:22:05.766Z,101546.16
2022-08-09T12:25:11.077Z,101546.06
2022-08-09T12:29:13.272Z,101546.03
2022-08-09T12:34:05.127Z,101539.00
2022-08-09T12:40:14.187Z,101541.78
2022-08-09T12:43:04.353Z,101545.34
2022-08-09T12:46:05.618Z,101550.09
2022-08-09T12:57:06.556Z,101557.19
2022-08-09T12:59:57.948Z,101560.00
2022-08-09T13:03:07.606Z,101562.56
2022-08-09T13:06:14.508Z,101557.91
2022-08-09T13:10:05.105Z,101566.69
2022-08-09T13:13:10.808Z,101565.69
2022-08-09T13:20:20.273Z,101571.69
2022-08-09T13:23:06.125Z,101567.91
2022-08-09T13:26:05.418Z,101578.25
2022-08-09T13:32:15.469Z,101584.34
2022-08-09T13:35:11.566Z,101584.34
2022-08-09T13:38:06.663Z,101587.03
2022-08-09T13:41:46.856Z,101595.09
2022-08-09T13:44:05.499Z,101601.34
2022-08-09T13:50:18.282Z,101611.22
2022-08-09T13:53:10.697Z,101618.06
2022-08-09T13:55:42.509Z,101629.41
2022-08-09T13:59:07.932Z,101621.84
2022-08-09T15:56:28.565Z,101653.66
2022-08-09T16:24:38.339Z,101640.69
2022-08-09T16:27:16.751Z,101642.25
2022-08-09T16:29:49.962Z,101636.69
2022-08-09T16:32:34.286Z,101637.38
2022-08-09T16:35:04.416Z,101635.34
2022-08-09T16:37:55.510Z,101628.72
2022-08-09T16:40:39.948Z,101626.53
2022-08-09T16:43:10.289Z,101623.59
2022-08-09T16:45:43.913Z,101623.59
2022-08-09T16:48:39.465Z,101617.56
2022-08-09T16:51:08.451Z,101618.66
2022-08-09T16:56:32.912Z,101624.16
2022-08-09T16:59:06.546Z,101622.38
2022-08-09T17:01:39.018Z,101618.44
2022-08-09T17:04:26.124Z,101614.97
2022-08-09T17:08:45.474Z,101622.69
2022-08-09T17:09:48.211Z,101615.78
2022-08-09T17:12:24.533Z,101612.63
2022-08-09T17:15:30.513Z,101619.66
2022-08-09T17:18:00.690Z,101623.84
2022-08-09T17:20:42.229Z,101620.91
2022-08-09T17:24:34.624Z,101613.28
2022-08-09T18:38:30.260Z,101616.56
2022-08-09T18:41:05.874Z,101615.09
2022-08-09T18:43:37.500Z,101616.44
2022-08-09T18:46:46.179Z,101613.28
2022-08-09T18:49:12.535Z,101601.69
2022-08-09T18:51:55.132Z,101606.97
2022-08-09T18:54:35.622Z,101595.19
2022-08-09T18:57:06.993Z,101598.06
2022-08-09T18:59:51.382Z,101599.97
2022-08-09T19:02:39.376Z,101607.00
2022-08-09T19:05:48.904Z,101604.03
2022-08-09T19:11:39.489Z,101598.78
2022-08-09T19:14:36.291Z,101593.53
2022-08-09T19:23:06.870Z,101588.91
2022-08-09T19:26:04.510Z,101578.91
2022-08-09T19:28:38.089Z,101582.84
2022-08-09T19:31:17.308Z,101583.00
2022-08-09T19:36:43.868Z,101577.63
2022-08-09T19:42:37.677Z,101581.88
2022-08-09T19:45:40.427Z,101578.13
2022-08-09T19:49:01.701Z,101574.56
2022-08-09T19:51:41.098Z,101584.91
2022-08-09T19:54:44.297Z,101579.66
2022-08-09T19:57:38.978Z,101579.97
2022-08-09T20:00:38.196Z,101576.78
2022-08-09T20:04:17.128Z,101576.25
2022-08-09T20:06:22.363Z,101574.72
2022-08-09T20:10:06.718Z,101568.44
